WetterOnline ( https://www.wetteronline.de )

Wetter aktuell Altenburg

Aktuelles Wetter: Gera/Leumnitz (311m)

6-stündlich | Neueste Meldungen
Ortszeit Temperatur Wetter
Mi, 29.05. 14:00 18.0° C bedeckt
Mi, 29.05. 8:00 12.6° C wolkig
Mi, 29.05. 2:00 8.8° C wolkig
Di, 28.05. 20:00 15.1° C wolkenlos
Di, 28.05. 14:00 15.1° C bedeckt
Di, 28.05. 8:00 13.6° C leichter Regen
Di, 28.05. 2:00 14.5° C bewölkt
Mo, 27.05. 20:00 20.7° C leicht bewölkt
Ortszeit Temperatur Wetter
Mi, 29.05. 17:30 18.0° C bedeckt
Mi, 29.05. 17:20 18.0° C bedeckt
Mi, 29.05. 17:10 17.3° C bewölkt
Mi, 29.05. 17:00 17.8° C bedeckt
Mi, 29.05. 16:50 17.8° C bedeckt
Mi, 29.05. 16:40 17.9° C bedeckt
Mi, 29.05. 16:30 17.6° C bedeckt
Mi, 29.05. 16:00 17.6° C Regen
Mi, 29.05. 15:30 17.5° C leichter Regen
Mi, 29.05. 15:00 18.0° C leichter Regen
Mi, 29.05. 14:30 18.7° C bedeckt
Ortszeit Relative Feuchte Sichtweite
Mi, 29.05. 14:00 64% >70 km
Mi, 29.05. 8:00 73% 55 km
Mi, 29.05. 2:00 83% 60 km
Di, 28.05. 20:00 66% 65 km
Di, 28.05. 14:00 70% 60 km
Di, 28.05. 8:00 93% 17 km
Di, 28.05. 2:00 94% 40 km
Mo, 27.05. 20:00 67% 60 km
Ortszeit Relative Feuchte Sichtweite
Mi, 29.05. 17:30 67% 50 km
Mi, 29.05. 17:20 67% -
Mi, 29.05. 17:10 66% -
Mi, 29.05. 17:00 63% 60 km
Mi, 29.05. 16:50 63% -
Mi, 29.05. 16:40 66% -
Mi, 29.05. 16:30 67% 60 km
Mi, 29.05. 16:00 67% 60 km
Mi, 29.05. 15:30 66% 30 km
Mi, 29.05. 15:00 60% 45 km
Mi, 29.05. 14:30 64% 55 km
Ortszeit Niederschlagsmenge Niederschlagsart
Mi, 29.05. 14:00 0.1 l/m2 in 6 Std. Regen
Mi, 29.05. 8:00 0.0 l/m2 in 12 Std. -
Mi, 29.05. 2:00 0.0 l/m2 in 6 Std. -
Di, 28.05. 20:00 0.5 l/m2 in 12 Std. Regen
Di, 28.05. 14:00 0.5 l/m2 in 6 Std. Regen
Di, 28.05. 8:00 1 l/m2 in 12 Std. Regen
Di, 28.05. 2:00 0.2 l/m2 in 6 Std. Regen
Mo, 27.05. 20:00 0.4 l/m2 in 12 Std. -
Ortszeit Niederschlagsmenge Niederschlagsart
Mi, 29.05. 17:30 <0.05 l/m2 in 30 Min Schneeregen
Mi, 29.05. 17:20 keine Meldung -
Mi, 29.05. 17:10 keine Meldung -
Mi, 29.05. 17:00 <0.05 l/m2 in 1 Std. Regen
Mi, 29.05. 16:50 keine Meldung -
Mi, 29.05. 16:40 keine Meldung -
Mi, 29.05. 16:30 <0.05 l/m2 in 30 Min Schneeregen
Mi, 29.05. 16:00 <0.05 l/m2 in 1 Std. Regen
Mi, 29.05. 15:30 <0.05 l/m2 in 30 Min -
Mi, 29.05. 15:00 <0.05 l/m2 in 1 Std. Regen
Mi, 29.05. 14:30 0.0 l/m2 in 30 Min -
Ortszeit Stärke Spitze Richtung
km/h Bft. km/h Grad Sektor
Mi, 29.05. 14:00 15 3 31 180° S
Mi, 29.05. 8:00 14 3 25 170° S
Mi, 29.05. 2:00 14 3 18 180° S
Di, 28.05. 20:00 7 2 32 230° SW
Di, 28.05. 14:00 15 3 31 300° NW
Di, 28.05. 8:00 9 2 19 290° W
Di, 28.05. 2:00 9 2 24 250° W
Mo, 27.05. 20:00 4 1 29 160° S
Ortszeit Stärke Spitze Richtung
km/h Bft. km/h Grad Sektor
Mi, 29.05. 17:30 17 3 35 200° S
Mi, 29.05. 17:20 17 3 - 200° S
Mi, 29.05. 17:10 18 3 - 210° SW
Mi, 29.05. 17:00 18 3 32 220° SW
Mi, 29.05. 16:50 18 3 - 220° SW
Mi, 29.05. 16:40 17 3 - 220° SW
Mi, 29.05. 16:30 11 2 18 260° W
Mi, 29.05. 16:00 13 3 30 270° W
Mi, 29.05. 15:30 18 3 29 250° W
Mi, 29.05. 15:00 14 3 22 260° W
Mi, 29.05. 14:30 11 2 18 190° S
Ortszeit Untergrenze Bedeckung Gattung
total tief tief mittel hoch
Mi, 29.05. 14:00 1500 m 8/8 8/8 - - -
Mi, 29.05. 8:00 2100 m 8/8 2/8 - - -
Mi, 29.05. 2:00 8700 m 7/8 0/8 - - -
Di, 28.05. 20:00 - 0/8 0/8 - - -
Di, 28.05. 14:00 2100 m 8/8 8/8 - - -
Di, 28.05. 8:00 1800 m 7/8 7/8 - - -
Di, 28.05. 2:00 2400 m 8/8 7/8 - - -
Mo, 27.05. 20:00 4200 m 4/8 4/8 - - -
Ortszeit Bedeckungsgrad in Achtel und Wolkenuntergrenze
Mi, 29.05. 17:30 5(1500m) 8(2100m)
Mi, 29.05. 17:20 5(1500m) 8(2100m)
Mi, 29.05. 17:10 7
Mi, 29.05. 17:00 1(1260m) 8(1800m) 8(2700m)
Mi, 29.05. 16:50 1(1260m) 8(1800m) 8(2700m)
Mi, 29.05. 16:40 8
Mi, 29.05. 16:30 7(1500m) 8(2100m)
Mi, 29.05. 16:00 2(1500m) 7(2100m) 8(3000m)
Mi, 29.05. 15:30 4(1350m) 7(1500m) 8(2100m)
Mi, 29.05. 15:00 7(1470m) 8(1500m)
Mi, 29.05. 14:30 1(1350m) 8(1500m)
Ortszeit Luftdruck NN (hPa) Tendenz (hPa in 3 Std.)
Mi, 29.05. 14:00 1013 - 1,4
Mi, 29.05. 8:00 1016 - 1,1
Mi, 29.05. 2:00 1019 - 0,6
Di, 28.05. 20:00 1018 - 0,1
Di, 28.05. 14:00 1019 + 0,3
Di, 28.05. 8:00 1017 + 1,2
Di, 28.05. 2:00 1016 + 0,4
Mo, 27.05. 20:00 1014 - 1,1
Ortszeit Luftdruck NN (hPa) Tendenz (hPa in 3 Std.)
Mi, 29.05. 17:30 1011 - 1,0
Mi, 29.05. 17:20 1011 keine Meldung
Mi, 29.05. 17:10 1011 keine Meldung
Mi, 29.05. 17:00 1012 - 1,0
Mi, 29.05. 16:50 1012 keine Meldung
Mi, 29.05. 16:40 1012 keine Meldung
Mi, 29.05. 16:30 1012 - 1,2
Mi, 29.05. 16:00 1012 - 1,3
Mi, 29.05. 15:30 1012 - 1,5
Mi, 29.05. 15:00 1012 - 1,5
Mi, 29.05. 14:30 1012 - 1,5
Ortszeit Schneehöhe (cm)
Mi, 29.05. 14:00 0
Mi, 29.05. 8:00 0
Mi, 29.05. 2:00 0
Di, 28.05. 20:00 0
Di, 28.05. 14:00 0
Di, 28.05. 8:00 0
Di, 28.05. 2:00 0
Mo, 27.05. 20:00 0
Ortszeit Schneehöhe (cm)
Mi, 29.05. 17:30 0
Mi, 29.05. 17:20 0
Mi, 29.05. 17:10 -
Mi, 29.05. 17:00 0
Mi, 29.05. 16:50 0
Mi, 29.05. 16:40 -
Mi, 29.05. 16:30 0
Mi, 29.05. 16:00 0
Mi, 29.05. 15:30 0
Mi, 29.05. 15:00 0
Mi, 29.05. 14:30 0
Link zu dieser Seite / Seite empfehlen

Das Wetter in ...